Time,TemperatureF,DewpointF,PressureIn,WindDirection,WindDirectionDegrees,WindSpeedMPH,WindSpeedGustMPH,Humidity,HourlyPrecipIn,Conditions,Clouds,dailyrainin,SoftwareType,DateUTC
2013-07-21 00:32:00,80.0,42.0,-100.00,WSW,253,6.0,13.0,26,-99.99,,,-99.99,,2013-07-21 07:32:00,
2013-07-21 09:01:00,79.0,43.0,-100.00,SSW,198,0.0,3.0,28,-99.99,,,-99.99,,2013-07-21 16:01:00,
2013-07-21 09:11:00,79.0,43.0,-100.00,SSW,198,0.0,3.0,28,-99.99,,,-99.99,,2013-07-21 16:11:00,
2013-07-21 09:22:00,81.0,42.0,-100.00,SE,133,0.0,4.0,25,-99.99,,,-99.99,,2013-07-21 16:22:00,
2013-07-21 09:32:00,81.0,43.0,-100.00,SSE,151,3.0,5.0,26,-99.99,,,-99.99,,2013-07-21 16:32:00,
2013-07-21 09:42:00,81.0,43.0,-100.00,SSE,151,3.0,5.0,26,-99.99,,,-99.99,,2013-07-21 16:42:00,
2013-07-21 09:52:00,82.0,42.0,-100.00,SSE,147,2.0,6.0,24,-99.99,,,-99.99,,2013-07-21 16:52:00,
2013-07-21 10:01:00,82.0,42.0,-100.00,SSE,147,2.0,6.0,24,-99.99,,,-99.99,,2013-07-21 17:01:00,
2013-07-21 10:11:00,84.0,42.0,-100.00,SE,130,1.0,4.0,23,-99.99,,,-99.99,,2013-07-21 17:11:00,
2013-07-21 11:43:00,91.0,37.0,-100.00,East,88,5.0,12.0,15,-99.99,,,-99.99,,2013-07-21 18:43:00,
2013-07-21 12:11:00,89.0,38.0,-100.00,SSE,158,6.0,12.0,17,-99.99,,,-99.99,,2013-07-21 19:11:00,
2013-07-21 12:22:00,89.0,38.0,-100.00,SSE,158,6.0,12.0,17,-99.99,,,-99.99,,2013-07-21 19:22:00,
2013-07-21 12:32:00,90.0,38.0,-100.00,SSE,160,7.0,13.0,16,-99.99,,,-99.99,,2013-07-21 19:32:00,
2013-07-21 12:42:00,90.0,38.0,-100.00,SSE,160,7.0,13.0,16,-99.99,,,-99.99,,2013-07-21 19:42:00,
2013-07-21 12:52:00,92.0,34.0,-100.00,South,179,4.0,9.0,13,-99.99,,,-99.99,,2013-07-21 19:52:00,
2013-07-21 13:11:00,92.0,30.0,-100.00,ESE,119,5.0,12.0,11,-99.99,,,-99.99,,2013-07-21 20:11:00,
2013-07-21 13:22:00,91.0,27.0,-100.00,SSW,210,9.0,17.0,10,-99.99,,,-99.99,,2013-07-21 20:22:00,
2013-07-21 13:32:00,92.0,28.0,-100.00,NNW,330,6.0,14.0,10,-99.99,,,-99.99,,2013-07-21 20:32:00,
2013-07-21 13:42:00,92.0,28.0,-100.00,NNW,330,6.0,14.0,10,-99.99,,,-99.99,,2013-07-21 20:42:00,
2013-07-21 13:52:00,93.0,31.0,-100.00,SSW,196,8.0,18.0,11,-99.99,,,-99.99,,2013-07-21 20:52:00,
2013-07-21 14:01:00,93.0,31.0,-100.00,SSW,196,8.0,18.0,11,-99.99,,,-99.99,,2013-07-21 21:01:00,
2013-07-21 14:22:00,92.0,32.0,-100.00,SW,233,9.0,18.0,12,-99.99,,,-99.99,,2013-07-21 21:22:00,
2013-07-21 14:32:00,92.0,32.0,-100.00,SW,233,9.0,18.0,12,-99.99,,,-99.99,,2013-07-21 21:32:00,
2013-07-21 14:43:00,92.0,32.0,-100.00,SW,233,9.0,18.0,12,-99.99,,,-99.99,,2013-07-21 21:43:00,
2013-07-21 15:01:00,93.0,32.0,-100.00,North,-999,-999.0,-999.0,11,-99.99,,,-99.99,,2013-07-21 22:01:00,
2013-07-21 15:11:00,93.0,31.0,-100.00,SW,215,10.0,23.0,11,-99.99,,,-99.99,,2013-07-21 22:11:00,
2013-07-21 15:22:00,93.0,31.0,-100.00,SW,215,10.0,23.0,11,-99.99,,,-99.99,,2013-07-21 22:22:00,
2013-07-21 15:30:00,93.0,31.0,-100.00,West,261,7.0,19.0,11,-99.99,,,-99.99,,2013-07-21 22:30:00,
2013-07-21 15:32:00,93.0,31.0,-100.00,SW,215,10.0,23.0,11,-99.99,,,-99.99,,2013-07-21 22:32:00,
2013-07-21 15:42:00,94.0,29.0,-100.00,WNW,289,7.0,21.0,10,-99.99,,,-99.99,,2013-07-21 22:42:00,
2013-07-21 15:52:00,94.0,29.0,-100.00,WNW,289,7.0,21.0,10,-99.99,,,-99.99,,2013-07-21 22:52:00,
2013-07-21 16:01:00,93.0,31.0,-100.00,West,261,7.0,19.0,11,-99.99,,,-99.99,,2013-07-21 23:01:00,
2013-07-21 16:11:00,93.0,31.0,-100.00,West,261,7.0,19.0,11,-99.99,,,-99.99,,2013-07-21 23:11:00,
2013-07-21 16:22:00,93.0,31.0,-100.00,West,261,7.0,19.0,11,-99.99,,,-99.99,,2013-07-21 23:22:00,
2013-07-21 16:43:00,92.0,30.0,-100.00,WSW,247,10.0,22.0,11,-99.99,,,-99.99,,2013-07-21 23:43:00,
2013-07-21 16:53:00,92.0,32.0,-100.00,WSW,251,9.0,21.0,12,-99.99,,,-99.99,,2013-07-21 23:53:00,
2013-07-21 17:01:00,92.0,32.0,-100.00,WSW,251,9.0,21.0,12,-99.99,,,-99.99,,2013-07-22 00:01:00,
2013-07-21 17:11:00,91.0,31.0,-100.00,WSW,247,11.0,20.0,12,-99.99,,,-99.99,,2013-07-22 00:11:00,
2013-07-21 17:32:00,92.0,32.0,-100.00,SW,230,11.0,22.0,12,-99.99,,,-99.99,,2013-07-22 00:32:00,
2013-07-21 17:42:00,91.0,31.0,-100.00,SW,227,13.0,22.0,12,-99.99,,,-99.99,,2013-07-22 00:42:00,
2013-07-21 17:52:00,91.0,31.0,-100.00,WSW,246,9.0,20.0,12,-99.99,,,-99.99,,2013-07-22 00:52:00,
2013-07-21 18:02:00,91.0,31.0,-100.00,WSW,246,9.0,20.0,12,-99.99,,,-99.99,,2013-07-22 01:02:00,
2013-07-21 18:11:00,90.0,31.0,-100.00,WSW,239,13.0,25.0,12,-99.99,,,-99.99,,2013-07-22 01:11:00,
2013-07-21 18:21:00,90.0,31.0,-100.00,WSW,239,13.0,25.0,12,-99.99,,,-99.99,,2013-07-22 01:21:00,
2013-07-21 18:42:00,89.0,32.0,-100.00,WSW,240,15.0,27.0,13,-99.99,,,-99.99,,2013-07-22 01:42:00,
2013-07-21 18:52:00,89.0,32.0,-100.00,WSW,240,15.0,27.0,13,-99.99,,,-99.99,,2013-07-22 01:52:00,
2013-07-21 19:01:00,89.0,32.0,-100.00,WSW,239,13.0,27.0,13,-99.99,,,-99.99,,2013-07-22 02:01:00,
2013-07-21 19:22:00,88.0,31.0,-100.00,WSW,239,13.0,25.0,13,-99.99,,,-99.99,,2013-07-22 02:22:00,
2013-07-21 19:32:00,87.0,32.0,-100.00,WSW,241,15.0,23.0,14,-99.99,,,-99.99,,2013-07-22 02:32:00,
2013-07-21 19:43:00,87.0,32.0,-100.00,WSW,241,15.0,23.0,14,-99.99,,,-99.99,,2013-07-22 02:43:00,
2013-07-21 20:01:00,85.0,39.0,-100.00,WSW,244,11.0,21.0,20,-99.99,,,-99.99,,2013-07-22 03:01:00,
2013-07-21 20:11:00,85.0,39.0,-100.00,WSW,244,11.0,21.0,20,-99.99,,,-99.99,,2013-07-22 03:11:00,
2013-07-21 20:22:00,84.0,44.0,-100.00,WSW,247,11.0,21.0,25,-99.99,,,-99.99,,2013-07-22 03:22:00,
2013-07-21 20:32:00,83.0,47.0,-100.00,WSW,246,10.0,20.0,28,-99.99,,,-99.99,,2013-07-22 03:32:00,
2013-07-21 20:43:00,83.0,47.0,-100.00,WSW,246,10.0,20.0,28,-99.99,,,-99.99,,2013-07-22 03:43:00,
2013-07-21 20:53:00,82.0,47.0,-100.00,WSW,247,13.0,23.0,30,-99.99,,,-99.99,,2013-07-22 03:53:00,
2013-07-21 21:01:00,82.0,47.0,-100.00,WSW,247,13.0,23.0,30,-99.99,,,-99.99,,2013-07-22 04:01:00,
2013-07-21 21:12:00,81.0,48.0,-100.00,WSW,240,16.0,27.0,32,-99.99,,,-99.99,,2013-07-22 04:12:00,
2013-07-21 21:22:00,80.0,47.0,-100.00,WSW,241,20.0,31.0,32,-99.99,,,-99.99,,2013-07-22 04:22:00,
2013-07-21 21:33:00,80.0,47.0,-100.00,WSW,241,20.0,31.0,32,-99.99,,,-99.99,,2013-07-22 04:33:00,
2013-07-21 21:43:00,79.0,48.0,-100.00,WSW,241,20.0,31.0,34,-99.99,,,-99.99,,2013-07-22 04:43:00,
2013-07-21 22:01:00,79.0,48.0,-100.00,WSW,241,20.0,31.0,34,-99.99,,,-99.99,,2013-07-22 05:01:00,
2013-07-21 22:11:00,78.0,47.0,-100.00,WSW,250,15.0,26.0,34,-99.99,,,-99.99,,2013-07-22 05:11:00,
2013-07-21 22:22:00,78.0,47.0,-100.00,WSW,250,15.0,26.0,34,-99.99,,,-99.99,,2013-07-22 05:22:00,
2013-07-21 22:32:00,78.0,45.0,-100.00,WSW,253,15.0,28.0,31,-99.99,,,-99.99,,2013-07-22 05:32:00,
2013-07-21 22:42:00,79.0,44.0,-100.00,WSW,257,15.0,25.0,29,-99.99,,,-99.99,,2013-07-22 05:42:00,
2013-07-21 22:52:00,79.0,44.0,-100.00,WSW,257,15.0,25.0,29,-99.99,,,-99.99,,2013-07-22 05:52:00,